sensor_id;sensor_type;location;lat;lon;timestamp;P1;P2;P0
72307;PMS5003;60257;42.638;23.376;2024-01-07T00:01:13;25.67;24.00;15.67
72307;PMS5003;60257;42.638;23.376;2024-01-07T00:03:42;27.67;25.00;16.00
72307;PMS5003;60257;42.638;23.376;2024-01-07T00:06:07;26.67;25.00;17.00
72307;PMS5003;60257;42.638;23.376;2024-01-07T00:08:34;23.33;21.33;14.33
72307;PMS5003;60257;42.638;23.376;2024-01-07T00:11:00;18.33;18.33;10.67
72307;PMS5003;60257;42.638;23.376;2024-01-07T00:13:25;27.00;25.00;17.33
72307;PMS5003;60257;42.638;23.376;2024-01-07T00:15:50;27.33;26.00;16.33
72307;PMS5003;60257;42.638;23.376;2024-01-07T00:18:17;26.67;26.00;17.00
72307;PMS5003;60257;42.638;23.376;2024-01-07T00:20:42;30.33;27.00;17.00
72307;PMS5003;60257;42.638;23.376;2024-01-07T00:23:08;26.67;24.67;17.33
72307;PMS5003;60257;42.638;23.376;2024-01-07T00:25:33;20.00;20.00;16.00
72307;PMS5003;60257;42.638;23.376;2024-01-07T00:27:58;23.67;23.00;15.33
72307;PMS5003;60257;42.638;23.376;2024-01-07T00:30:24;23.67;22.00;15.33
72307;PMS5003;60257;42.638;23.376;2024-01-07T00:32:49;19.00;16.00;8.67
72307;PMS5003;60257;42.638;23.376;2024-01-07T00:35:16;26.67;25.00;16.00
72307;PMS5003;60257;42.638;23.376;2024-01-07T00:37:41;21.33;20.00;13.67
72307;PMS5003;60257;42.638;23.376;2024-01-07T00:40:07;28.67;26.00;16.67
72307;PMS5003;60257;42.638;23.376;2024-01-07T00:42:33;26.00;24.33;15.00
72307;PMS5003;60257;42.638;23.376;2024-01-07T00:44:58;25.00;22.33;17.00
72307;PMS5003;60257;42.638;23.376;2024-01-07T00:47:24;18.67;16.00;12.00
72307;PMS5003;60257;42.638;23.376;2024-01-07T00:49:49;26.67;26.33;16.33
72307;PMS5003;60257;42.638;23.376;2024-01-07T00:52:15;31.00;29.33;18.00
72307;PMS5003;60257;42.638;23.376;2024-01-07T00:54:40;28.00;27.67;17.67
72307;PMS5003;60257;42.638;23.376;2024-01-07T00:57:06;23.67;22.00;14.00
72307;PMS5003;60257;42.638;23.376;2024-01-07T00:59:31;20.00;20.00;14.33
72307;PMS5003;60257;42.638;23.376;2024-01-07T01:01:56;20.33;18.67;10.33
72307;PMS5003;60257;42.638;23.376;2024-01-07T01:04:22;25.00;24.33;15.33
72307;PMS5003;60257;42.638;23.376;2024-01-07T01:06:47;26.00;25.67;16.00
72307;PMS5003;60257;42.638;23.376;2024-01-07T01:09:12;32.33;28.67;18.67
72307;PMS5003;60257;42.638;23.376;2024-01-07T01:11:38;37.33;34.67;23.00
72307;PMS5003;60257;42.638;23.376;2024-01-07T01:14:03;38.00;34.00;21.67
72307;PMS5003;60257;42.638;23.376;2024-01-07T01:16:29;44.33;38.00;25.00
72307;PMS5003;60257;42.638;23.376;2024-01-07T01:18:54;41.67;38.00;25.00
72307;PMS5003;60257;42.638;23.376;2024-01-07T01:21:20;44.67;39.00;24.00
72307;PMS5003;60257;42.638;23.376;2024-01-07T01:23:46;42.67;37.33;22.33
72307;PMS5003;60257;42.638;23.376;2024-01-07T01:26:12;33.33;31.00;18.67
72307;PMS5003;60257;42.638;23.376;2024-01-07T01:28:37;47.67;41.33;26.33
72307;PMS5003;60257;42.638;23.376;2024-01-07T01:31:02;47.33;39.00;23.00
72307;PMS5003;60257;42.638;23.376;2024-01-07T01:33:28;37.67;34.00;22.00
72307;PMS5003;60257;42.638;23.376;2024-01-07T01:35:54;38.67;37.00;22.67
72307;PMS5003;60257;42.638;23.376;2024-01-07T01:38:20;35.33;33.33;24.00
72307;PMS5003;60257;42.638;23.376;2024-01-07T01:40:54;30.00;30.00;23.00
72307;PMS5003;60257;42.638;23.376;2024-01-07T01:43:26;49.00;40.33;24.33
72307;PMS5003;60257;42.638;23.376;2024-01-07T01:45:53;47.33;41.00;24.67
72307;PMS5003;60257;42.638;23.376;2024-01-07T01:48:19;34.33;33.67;21.67
72307;PMS5003;60257;42.638;23.376;2024-01-07T01:50:46;34.00;33.00;17.00
72307;PMS5003;60257;42.638;23.376;2024-01-07T01:53:13;41.00;37.00;22.67
72307;PMS5003;60257;42.638;23.376;2024-01-07T01:55:39;35.67;32.67;21.67
72307;PMS5003;60257;42.638;23.376;2024-01-07T01:58:05;31.67;29.33;18.67
72307;PMS5003;60257;42.638;23.376;2024-01-07T02:00:33;28.67;26.33;16.33
72307;PMS5003;60257;42.638;23.376;2024-01-07T02:02:59;27.33;27.33;15.33
72307;PMS5003;60257;42.638;23.376;2024-01-07T02:05:25;14.00;12.00;9.00
72307;PMS5003;60257;42.638;23.376;2024-01-07T02:07:51;16.00;16.00;10.33
72307;PMS5003;60257;42.638;23.376;2024-01-07T02:10:17;17.00;17.00;11.00
72307;PMS5003;60257;42.638;23.376;2024-01-07T02:12:43;17.67;15.67;11.00
72307;PMS5003;60257;42.638;23.376;2024-01-07T02:15:08;16.67;15.00;9.33
72307;PMS5003;60257;42.638;23.376;2024-01-07T02:17:34;21.00;17.33;11.67
72307;PMS5003;60257;42.638;23.376;2024-01-07T02:20:00;14.00;14.00;11.67
72307;PMS5003;60257;42.638;23.376;2024-01-07T02:22:25;13.00;13.00;7.67
72307;PMS5003;60257;42.638;23.376;2024-01-07T02:24:51;18.00;17.00;11.00
72307;PMS5003;60257;42.638;23.376;2024-01-07T02:27:16;13.00;13.00;9.00
72307;PMS5003;60257;42.638;23.376;2024-01-07T02:29:41;13.00;13.00;8.33
72307;PMS5003;60257;42.638;23.376;2024-01-07T02:32:07;18.00;18.00;10.33
72307;PMS5003;60257;42.638;23.376;2024-01-07T02:34:32;16.67;16.67;12.00
72307;PMS5003;60257;42.638;23.376;2024-01-07T02:36:58;19.33;18.67;11.00
72307;PMS5003;60257;42.638;23.376;2024-01-07T02:39:23;18.33;17.67;11.33
72307;PMS5003;60257;42.638;23.376;2024-01-07T02:41:50;18.33;17.33;11.00
72307;PMS5003;60257;42.638;23.376;2024-01-07T02:44:16;14.00;14.00;10.00
72307;PMS5003;60257;42.638;23.376;2024-01-07T02:46:41;17.33;17.33;10.67
72307;PMS5003;60257;42.638;23.376;2024-01-07T02:49:07;14.67;14.00;8.67
72307;PMS5003;60257;42.638;23.376;2024-01-07T02:51:32;15.33;13.67;8.67
72307;PMS5003;60257;42.638;23.376;2024-01-07T02:53:57;20.67;19.67;10.67
72307;PMS5003;60257;42.638;23.376;2024-01-07T02:56:23;17.33;15.00;10.00
72307;PMS5003;60257;42.638;23.376;2024-01-07T02:58:48;13.33;13.33;10.00
72307;PMS5003;60257;42.638;23.376;2024-01-07T03:01:14;17.67;17.67;10.33
72307;PMS5003;60257;42.638;23.376;2024-01-07T03:03:39;17.33;16.33;11.33
72307;PMS5003;60257;42.638;23.376;2024-01-07T03:06:04;25.67;23.33;13.00
72307;PMS5003;60257;42.638;23.376;2024-01-07T03:08:30;23.33;21.00;14.00
72307;PMS5003;60257;42.638;23.376;2024-01-07T03:10:56;24.00;21.00;12.33
72307;PMS5003;60257;42.638;23.376;2024-01-07T03:13:21;19.33;13.67;12.00
72307;PMS5003;60257;42.638;23.376;2024-01-07T03:15:46;15.00;12.67;6.00
72307;PMS5003;60257;42.638;23.376;2024-01-07T03:18:14;23.00;20.67;14.00
72307;PMS5003;60257;42.638;23.376;2024-01-07T03:20:52;24.00;23.00;14.33
72307;PMS5003;60257;42.638;23.376;2024-01-07T03:23:17;22.00;19.67;12.00
72307;PMS5003;60257;42.638;23.376;2024-01-07T03:25:43;17.33;16.33;10.00
72307;PMS5003;60257;42.638;23.376;2024-01-07T03:28:09;21.33;18.00;13.33
72307;PMS5003;60257;42.638;23.376;2024-01-07T03:30:34;17.67;17.33;11.00
72307;PMS5003;60257;42.638;23.376;2024-01-07T03:33:00;20.67;20.33;12.33
72307;PMS5003;60257;42.638;23.376;2024-01-07T03:35:25;22.00;21.00;13.00
72307;PMS5003;60257;42.638;23.376;2024-01-07T03:37:50;22.33;20.67;13.67
72307;PMS5003;60257;42.638;23.376;2024-01-07T03:40:16;19.67;19.67;14.00
72307;PMS5003;60257;42.638;23.376;2024-01-07T03:42:41;20.67;20.67;14.00
72307;PMS5003;60257;42.638;23.376;2024-01-07T03:45:07;20.67;20.67;13.67
72307;PMS5003;60257;42.638;23.376;2024-01-07T03:47:32;25.00;23.67;16.33
72307;PMS5003;60257;42.638;23.376;2024-01-07T03:49:58;23.00;23.00;16.33
72307;PMS5003;60257;42.638;23.376;2024-01-07T03:52:23;20.00;19.33;13.00
72307;PMS5003;60257;42.638;23.376;2024-01-07T03:54:48;20.00;18.67;12.33
72307;PMS5003;60257;42.638;23.376;2024-01-07T03:57:14;19.67;18.00;11.00
72307;PMS5003;60257;42.638;23.376;2024-01-07T03:59:39;18.00;16.67;11.67
72307;PMS5003;60257;42.638;23.376;2024-01-07T04:02:04;13.33;13.33;7.33
72307;PMS5003;60257;42.638;23.376;2024-01-07T04:04:31;18.00;16.33;10.33
72307;PMS5003;60257;42.638;23.376;2024-01-07T04:06:56;16.67;13.33;9.00
72307;PMS5003;60257;42.638;23.376;2024-01-07T04:09:22;11.00;11.00;8.33
72307;PMS5003;60257;42.638;23.376;2024-01-07T04:11:47;13.67;13.67;10.00
72307;PMS5003;60257;42.638;23.376;2024-01-07T04:14:14;14.00;13.33;9.67
72307;PMS5003;60257;42.638;23.376;2024-01-07T04:16:40;20.00;16.33;10.67
72307;PMS5003;60257;42.638;23.376;2024-01-07T04:19:05;28.33;27.33;19.00
72307;PMS5003;60257;42.638;23.376;2024-01-07T04:21:31;34.00;31.33;21.00
72307;PMS5003;60257;42.638;23.376;2024-01-07T04:23:56;32.33;30.00;20.00
72307;PMS5003;60257;42.638;23.376;2024-01-07T04:26:22;32.67;32.00;20.00
72307;PMS5003;60257;42.638;23.376;2024-01-07T04:28:47;28.67;28.67;20.33
72307;PMS5003;60257;42.638;23.376;2024-01-07T04:31:13;39.67;35.67;23.00
72307;PMS5003;60257;42.638;23.376;2024-01-07T04:33:38;41.33;37.00;23.00
72307;PMS5003;60257;42.638;23.376;2024-01-07T04:36:03;39.00;34.67;23.33
72307;PMS5003;60257;42.638;23.376;2024-01-07T04:38:30;44.00;36.00;24.00
72307;PMS5003;60257;42.638;23.376;2024-01-07T04:40:55;37.67;35.67;23.33
72307;PMS5003;60257;42.638;23.376;2024-01-07T04:43:20;42.67;37.00;23.00
72307;PMS5003;60257;42.638;23.376;2024-01-07T04:45:46;37.00;34.00;22.00
72307;PMS5003;60257;42.638;23.376;2024-01-07T04:48:12;41.00;35.67;23.33
72307;PMS5003;60257;42.638;23.376;2024-01-07T04:50:38;43.33;37.33;24.00
72307;PMS5003;60257;42.638;23.376;2024-01-07T04:53:05;34.33;34.33;21.67
72307;PMS5003;60257;42.638;23.376;2024-01-07T04:55:31;36.00;34.67;23.67
72307;PMS5003;60257;42.638;23.376;2024-01-07T04:57:56;33.67;31.67;22.33
72307;PMS5003;60257;42.638;23.376;2024-01-07T05:00:21;33.67;33.67;24.00
72307;PMS5003;60257;42.638;23.376;2024-01-07T05:02:47;41.67;36.67;22.33
72307;PMS5003;60257;42.638;23.376;2024-01-07T05:05:12;35.00;32.33;21.67
72307;PMS5003;60257;42.638;23.376;2024-01-07T05:07:38;33.67;33.67;20.67
72307;PMS5003;60257;42.638;23.376;2024-01-07T05:10:04;34.33;30.00;19.00
72307;PMS5003;60257;42.638;23.376;2024-01-07T05:12:30;30.00;28.00;17.33
72307;PMS5003;60257;42.638;23.376;2024-01-07T05:14:55;36.67;34.00;21.67
72307;PMS5003;60257;42.638;23.376;2024-01-07T05:17:20;36.33;32.67;19.67
72307;PMS5003;60257;42.638;23.376;2024-01-07T05:19:46;36.00;33.33;19.33
72307;PMS5003;60257;42.638;23.376;2024-01-07T05:22:11;33.67;29.67;18.33
72307;PMS5003;60257;42.638;23.376;2024-01-07T05:24:37;34.33;30.67;18.67
72307;PMS5003;60257;42.638;23.376;2024-01-07T05:27:05;29.67;27.67;20.67
72307;PMS5003;60257;42.638;23.376;2024-01-07T05:29:31;24.00;20.00;17.33
72307;PMS5003;60257;42.638;23.376;2024-01-07T05:31:58;32.00;29.33;16.33
72307;PMS5003;60257;42.638;23.376;2024-01-07T05:34:25;32.67;30.67;19.00
72307;PMS5003;60257;42.638;23.376;2024-01-07T05:36:51;32.33;32.00;16.33
72307;PMS5003;60257;42.638;23.376;2024-01-07T05:39:16;31.33;30.33;17.67
72307;PMS5003;60257;42.638;23.376;2024-01-07T05:41:42;33.33;33.33;21.33
72307;PMS5003;60257;42.638;23.376;2024-01-07T05:44:07;40.33;34.67;22.00
72307;PMS5003;60257;42.638;23.376;2024-01-07T05:46:33;40.00;36.33;24.33
72307;PMS5003;60257;42.638;23.376;2024-01-07T05:48:59;49.33;40.33;25.00
72307;PMS5003;60257;42.638;23.376;2024-01-07T05:51:24;47.67;41.67;25.33
72307;PMS5003;60257;42.638;23.376;2024-01-07T05:53:49;57.00;47.50;30.00
72307;PMS5003;60257;42.638;23.376;2024-01-07T05:56:15;51.75;44.50;31.00
72307;PMS5003;60257;42.638;23.376;2024-01-07T05:58:40;53.50;45.00;29.00
72307;PMS5003;60257;42.638;23.376;2024-01-07T06:01:06;57.25;48.75;31.00
72307;PMS5003;60257;42.638;23.376;2024-01-07T06:03:33;51.50;43.25;26.00
72307;PMS5003;60257;42.638;23.376;2024-01-07T06:05:58;53.25;45.75;29.00
72307;PMS5003;60257;42.638;23.376;2024-01-07T06:08:24;55.25;46.25;29.75
72307;PMS5003;60257;42.638;23.376;2024-01-07T06:10:51;54.00;43.50;29.25
72307;PMS5003;60257;42.638;23.376;2024-01-07T06:13:16;58.50;48.00;30.25
72307;PMS5003;60257;42.638;23.376;2024-01-07T06:15:41;59.00;47.75;28.25
72307;PMS5003;60257;42.638;23.376;2024-01-07T06:18:07;54.75;46.50;29.50
72307;PMS5003;60257;42.638;23.376;2024-01-07T06:20:32;60.25;50.00;32.25
72307;PMS5003;60257;42.638;23.376;2024-01-07T06:22:58;63.75;50.75;31.50
72307;PMS5003;60257;42.638;23.376;2024-01-07T06:25:23;58.00;48.75;31.25
72307;PMS5003;60257;42.638;23.376;2024-01-07T06:27:51;56.00;46.50;30.25
72307;PMS5003;60257;42.638;23.376;2024-01-07T06:30:16;39.75;35.50;14.00
72307;PMS5003;60257;42.638;23.376;2024-01-07T06:32:44;61.00;49.75;30.00
72307;PMS5003;60257;42.638;23.376;2024-01-07T06:35:10;55.25;46.25;29.75
72307;PMS5003;60257;42.638;23.376;2024-01-07T06:37:36;54.00;44.75;29.00
72307;PMS5003;60257;42.638;23.376;2024-01-07T06:40:01;55.75;46.00;28.00
72307;PMS5003;60257;42.638;23.376;2024-01-07T06:42:27;47.00;40.75;30.00
72307;PMS5003;60257;42.638;23.376;2024-01-07T06:44:52;58.25;49.25;29.25
72307;PMS5003;60257;42.638;23.376;2024-01-07T06:47:17;43.25;39.25;25.00
72307;PMS5003;60257;42.638;23.376;2024-01-07T06:49:43;53.25;45.75;27.75
72307;PMS5003;60257;42.638;23.376;2024-01-07T06:52:09;57.75;47.75;30.00
72307;PMS5003;60257;42.638;23.376;2024-01-07T06:54:34;49.25;41.25;25.50
72307;PMS5003;60257;42.638;23.376;2024-01-07T06:57:00;57.25;47.00;28.25
72307;PMS5003;60257;42.638;23.376;2024-01-07T06:59:25;56.75;44.50;27.25
72307;PMS5003;60257;42.638;23.376;2024-01-07T07:01:50;47.25;40.50;25.75
72307;PMS5003;60257;42.638;23.376;2024-01-07T07:04:16;47.50;41.25;27.25
72307;PMS5003;60257;42.638;23.376;2024-01-07T07:06:41;49.50;41.25;26.00
72307;PMS5003;60257;42.638;23.376;2024-01-07T07:09:06;54.00;45.25;29.25
72307;PMS5003;60257;42.638;23.376;2024-01-07T07:11:32;55.75;46.75;28.50
72307;PMS5003;60257;42.638;23.376;2024-01-07T07:13:57;44.33;38.33;24.00
72307;PMS5003;60257;42.638;23.376;2024-01-07T07:16:23;47.00;40.00;25.33
72307;PMS5003;60257;42.638;23.376;2024-01-07T07:18:48;52.33;44.00;25.67
72307;PMS5003;60257;42.638;23.376;2024-01-07T07:21:13;36.00;34.67;23.00
72307;PMS5003;60257;42.638;23.376;2024-01-07T07:23:39;35.67;33.67;20.00
72307;PMS5003;60257;42.638;23.376;2024-01-07T07:26:04;56.00;44.50;28.75
72307;PMS5003;60257;42.638;23.376;2024-01-07T07:28:30;39.67;34.67;20.67
72307;PMS5003;60257;42.638;23.376;2024-01-07T07:30:55;32.67;31.00;18.00
72307;PMS5003;60257;42.638;23.376;2024-01-07T07:33:20;34.67;33.00;18.00
72307;PMS5003;60257;42.638;23.376;2024-01-07T07:35:46;40.00;37.33;23.33
72307;PMS5003;60257;42.638;23.376;2024-01-07T07:38:11;43.00;37.67;23.33
72307;PMS5003;60257;42.638;23.376;2024-01-07T07:40:37;46.00;38.00;23.33
72307;PMS5003;60257;42.638;23.376;2024-01-07T07:43:02;42.00;38.00;24.33
72307;PMS5003;60257;42.638;23.376;2024-01-07T07:45:28;36.33;34.67;18.00
72307;PMS5003;60257;42.638;23.376;2024-01-07T07:47:53;40.33;35.00;21.00
72307;PMS5003;60257;42.638;23.376;2024-01-07T07:50:18;30.33;28.67;21.00
72307;PMS5003;60257;42.638;23.376;2024-01-07T07:52:44;28.67;25.67;18.67
72307;PMS5003;60257;42.638;23.376;2024-01-07T07:55:12;28.00;28.00;18.00
72307;PMS5003;60257;42.638;23.376;2024-01-07T07:57:37;32.00;29.67;19.67
72307;PMS5003;60257;42.638;23.376;2024-01-07T08:00:04;27.00;25.33;18.00
72307;PMS5003;60257;42.638;23.376;2024-01-07T08:02:30;25.00;23.00;14.33
72307;PMS5003;60257;42.638;23.376;2024-01-07T08:04:56;30.33;27.67;18.00
72307;PMS5003;60257;42.638;23.376;2024-01-07T08:07:21;29.00;28.67;14.67
72307;PMS5003;60257;42.638;23.376;2024-01-07T08:09:46;23.67;23.00;14.33
72307;PMS5003;60257;42.638;23.376;2024-01-07T08:12:12;24.00;24.00;14.67
72307;PMS5003;60257;42.638;23.376;2024-01-07T08:14:37;34.33;33.00;21.00
72307;PMS5003;60257;42.638;23.376;2024-01-07T08:17:06;31.00;28.33;18.33
72307;PMS5003;60257;42.638;23.376;2024-01-07T08:19:32;32.00;28.67;19.33
72307;PMS5003;60257;42.638;23.376;2024-01-07T08:21:57;32.67;32.00;19.33
72307;PMS5003;60257;42.638;23.376;2024-01-07T08:24:22;24.00;22.67;12.00
72307;PMS5003;60257;42.638;23.376;2024-01-07T08:26:48;30.33;29.00;19.00
72307;PMS5003;60257;42.638;23.376;2024-01-07T08:29:13;33.00;31.00;19.33
72307;PMS5003;60257;42.638;23.376;2024-01-07T08:31:38;30.00;27.00;18.33
72307;PMS5003;60257;42.638;23.376;2024-01-07T08:34:04;16.67;16.00;7.00
72307;PMS5003;60257;42.638;23.376;2024-01-07T08:36:30;24.33;23.67;15.00
72307;PMS5003;60257;42.638;23.376;2024-01-07T08:38:55;22.33;21.67;13.00
72307;PMS5003;60257;42.638;23.376;2024-01-07T08:41:21;27.00;26.33;14.00
72307;PMS5003;60257;42.638;23.376;2024-01-07T08:43:46;32.33;30.33;19.67
72307;PMS5003;60257;42.638;23.376;2024-01-07T08:46:12;33.33;33.00;22.00
72307;PMS5003;60257;42.638;23.376;2024-01-07T08:48:38;33.33;32.67;21.67
72307;PMS5003;60257;42.638;23.376;2024-01-07T08:51:04;28.67;28.67;19.00
72307;PMS5003;60257;42.638;23.376;2024-01-07T08:53:30;39.33;34.33;20.33
72307;PMS5003;60257;42.638;23.376;2024-01-07T08:55:56;41.00;34.00;21.67
72307;PMS5003;60257;42.638;23.376;2024-01-07T08:58:21;42.33;35.67;22.67
72307;PMS5003;60257;42.638;23.376;2024-01-07T09:00:47;34.00;31.33;22.00
72307;PMS5003;60257;42.638;23.376;2024-01-07T09:03:12;36.00;33.33;19.33
72307;PMS5003;60257;42.638;23.376;2024-01-07T09:05:37;44.00;38.33;24.00
72307;PMS5003;60257;42.638;23.376;2024-01-07T09:08:03;41.67;36.67;24.00
72307;PMS5003;60257;42.638;23.376;2024-01-07T09:10:29;47.00;38.67;25.00
72307;PMS5003;60257;42.638;23.376;2024-01-07T09:12:54;49.67;40.67;26.00
72307;PMS5003;60257;42.638;23.376;2024-01-07T09:15:20;50.00;41.00;25.00
72307;PMS5003;60257;42.638;23.376;2024-01-07T09:17:46;48.67;39.33;26.00
72307;PMS5003;60257;42.638;23.376;2024-01-07T09:20:12;46.33;39.33;25.00
72307;PMS5003;60257;42.638;23.376;2024-01-07T09:22:38;47.00;39.33;25.00
72307;PMS5003;60257;42.638;23.376;2024-01-07T09:25:04;43.67;38.00;25.00
72307;PMS5003;60257;42.638;23.376;2024-01-07T09:27:30;46.67;40.00;25.67
72307;PMS5003;60257;42.638;23.376;2024-01-07T09:29:56;48.67;41.00;25.67
72307;PMS5003;60257;42.638;23.376;2024-01-07T09:32:22;48.00;40.33;26.00
72307;PMS5003;60257;42.638;23.376;2024-01-07T09:34:48;51.00;42.00;26.00
72307;PMS5003;60257;42.638;23.376;2024-01-07T09:37:13;55.00;47.00;29.33
72307;PMS5003;60257;42.638;23.376;2024-01-07T09:39:42;52.67;44.00;26.67
72307;PMS5003;60257;42.638;23.376;2024-01-07T09:42:09;49.00;42.00;25.67
72307;PMS5003;60257;42.638;23.376;2024-01-07T09:44:38;43.33;34.33;22.67
72307;PMS5003;60257;42.638;23.376;2024-01-07T09:47:04;40.67;36.33;23.67
72307;PMS5003;60257;42.638;23.376;2024-01-07T09:49:32;47.67;39.67;24.33
72307;PMS5003;60257;42.638;23.376;2024-01-07T09:51:59;43.33;36.00;23.00
72307;PMS5003;60257;42.638;23.376;2024-01-07T09:54:28;29.67;28.00;16.33
72307;PMS5003;60257;42.638;23.376;2024-01-07T09:57:03;18.33;17.67;10.00
72307;PMS5003;60257;42.638;23.376;2024-01-07T09:59:31;21.00;18.00;12.00
72307;PMS5003;60257;42.638;23.376;2024-01-07T10:01:57;17.00;17.00;10.00
72307;PMS5003;60257;42.638;23.376;2024-01-07T10:04:23;17.00;14.00;8.00
72307;PMS5003;60257;42.638;23.376;2024-01-07T10:06:49;18.00;16.00;10.00
72307;PMS5003;60257;42.638;23.376;2024-01-07T10:09:15;12.67;11.00;8.33
72307;PMS5003;60257;42.638;23.376;2024-01-07T10:11:42;17.33;16.67;9.33
72307;PMS5003;60257;42.638;23.376;2024-01-07T10:14:08;22.00;21.00;13.33
72307;PMS5003;60257;42.638;23.376;2024-01-07T10:16:34;17.00;15.67;10.00
72307;PMS5003;60257;42.638;23.376;2024-01-07T10:18:59;11.67;11.67;7.00
72307;PMS5003;60257;42.638;23.376;2024-01-07T10:21:25;21.00;17.00;11.33
72307;PMS5003;60257;42.638;23.376;2024-01-07T10:23:50;15.33;14.67;8.00
72307;PMS5003;60257;42.638;23.376;2024-01-07T10:26:16;16.33;15.33;8.00
72307;PMS5003;60257;42.638;23.376;2024-01-07T10:28:41;15.33;14.33;8.33
72307;PMS5003;60257;42.638;23.376;2024-01-07T10:31:08;10.00;10.00;6.00
72307;PMS5003;60257;42.638;23.376;2024-01-07T10:33:34;10.33;10.33;5.67
72307;PMS5003;60257;42.638;23.376;2024-01-07T10:36:04;12.33;10.67;7.67
72307;PMS5003;60257;42.638;23.376;2024-01-07T10:38:34;12.00;10.67;8.00
72307;PMS5003;60257;42.638;23.376;2024-01-07T10:41:00;13.00;13.00;7.00
72307;PMS5003;60257;42.638;23.376;2024-01-07T10:43:30;16.00;13.00;8.00
72307;PMS5003;60257;42.638;23.376;2024-01-07T10:45:56;10.00;10.00;6.33
72307;PMS5003;60257;42.638;23.376;2024-01-07T10:48:28;14.33;13.33;9.00
72307;PMS5003;60257;42.638;23.376;2024-01-07T10:50:57;14.00;14.00;8.00
72307;PMS5003;60257;42.638;23.376;2024-01-07T10:53:25;16.00;15.67;10.33
72307;PMS5003;60257;42.638;23.376;2024-01-07T10:56:05;16.00;16.00;10.00
72307;PMS5003;60257;42.638;23.376;2024-01-07T10:58:36;19.67;17.67;10.00
72307;PMS5003;60257;42.638;23.376;2024-01-07T11:01:02;16.67;16.00;10.33
72307;PMS5003;60257;42.638;23.376;2024-01-07T11:03:40;16.33;16.33;11.00
72307;PMS5003;60257;42.638;23.376;2024-01-07T11:06:18;21.67;21.33;15.67
72307;PMS5003;60257;42.638;23.376;2024-01-07T11:11:42;23.00;22.00;13.67
72307;PMS5003;60257;42.638;23.376;2024-01-07T11:17:02;29.00;25.00;15.67
72307;PMS5003;60257;42.638;23.376;2024-01-07T11:19:28;18.67;18.33;10.00
72307;PMS5003;60257;42.638;23.376;2024-01-07T11:22:20;25.33;23.67;14.00
72307;PMS5003;60257;42.638;23.376;2024-01-07T11:24:50;23.67;23.00;14.33
72307;PMS5003;60257;42.638;23.376;2024-01-07T11:27:16;19.33;18.00;11.00
72307;PMS5003;60257;42.638;23.376;2024-01-07T11:29:42;20.33;17.00;11.67
72307;PMS5003;60257;42.638;23.376;2024-01-07T11:32:07;17.00;15.00;7.33
72307;PMS5003;60257;42.638;23.376;2024-01-07T11:34:43;21.00;20.67;14.67
72307;PMS5003;60257;42.638;23.376;2024-01-07T11:37:12;18.00;18.00;11.00
72307;PMS5003;60257;42.638;23.376;2024-01-07T11:39:44;19.33;18.67;11.00
72307;PMS5003;60257;42.638;23.376;2024-01-07T11:42:11;20.00;20.00;12.00
72307;PMS5003;60257;42.638;23.376;2024-01-07T11:44:37;22.00;21.00;13.33
72307;PMS5003;60257;42.638;23.376;2024-01-07T11:47:03;22.00;22.00;13.00
72307;PMS5003;60257;42.638;23.376;2024-01-07T11:49:30;25.00;23.33;13.67
72307;PMS5003;60257;42.638;23.376;2024-01-07T11:51:55;21.33;20.00;9.00
72307;PMS5003;60257;42.638;23.376;2024-01-07T11:54:21;21.33;21.33;15.00
72307;PMS5003;60257;42.638;23.376;2024-01-07T11:56:47;25.00;24.33;15.00
72307;PMS5003;60257;42.638;23.376;2024-01-07T11:59:12;26.33;23.67;14.67
72307;PMS5003;60257;42.638;23.376;2024-01-07T12:01:37;17.67;17.00;9.00
72307;PMS5003;60257;42.638;23.376;2024-01-07T12:04:03;24.33;22.33;14.67
72307;PMS5003;60257;42.638;23.376;2024-01-07T12:06:29;20.33;16.67;10.00
72307;PMS5003;60257;42.638;23.376;2024-01-07T12:08:55;21.00;21.00;13.00
72307;PMS5003;60257;42.638;23.376;2024-01-07T12:11:20;22.00;20.00;10.33
72307;PMS5003;60257;42.638;23.376;2024-01-07T12:13:46;20.67;19.00;10.00
72307;PMS5003;60257;42.638;23.376;2024-01-07T12:16:12;18.33;18.33;14.00
72307;PMS5003;60257;42.638;23.376;2024-01-07T12:18:38;24.00;22.00;13.00
72307;PMS5003;60257;42.638;23.376;2024-01-07T12:21:04;23.33;21.67;13.67
72307;PMS5003;60257;42.638;23.376;2024-01-07T12:23:33;9.67;9.33;5.67
72307;PMS5003;60257;42.638;23.376;2024-01-07T12:26:08;17.33;17.33;10.67
72307;PMS5003;60257;42.638;23.376;2024-01-07T12:28:35;23.00;22.00;13.33
72307;PMS5003;60257;42.638;23.376;2024-01-07T12:31:02;28.00;21.67;12.67
72307;PMS5003;60257;42.638;23.376;2024-01-07T12:33:28;23.00;21.00;14.00
72307;PMS5003;60257;42.638;23.376;2024-01-07T12:35:56;23.33;22.00;13.00
72307;PMS5003;60257;42.638;23.376;2024-01-07T12:38:26;22.67;21.67;13.33
72307;PMS5003;60257;42.638;23.376;2024-01-07T12:40:55;22.00;19.67;12.00
72307;PMS5003;60257;42.638;23.376;2024-01-07T12:43:21;22.33;21.33;12.67
72307;PMS5003;60257;42.638;23.376;2024-01-07T12:45:48;18.67;18.33;13.33
72307;PMS5003;60257;42.638;23.376;2024-01-07T12:48:13;31.00;24.67;14.00
72307;PMS5003;60257;42.638;23.376;2024-01-07T12:50:39;23.67;20.33;12.67
72307;PMS5003;60257;42.638;23.376;2024-01-07T12:53:04;26.33;24.67;16.00
72307;PMS5003;60257;42.638;23.376;2024-01-07T12:55:30;22.67;22.33;12.00
72307;PMS5003;60257;42.638;23.376;2024-01-07T12:57:56;22.00;21.67;15.33
72307;PMS5003;60257;42.638;23.376;2024-01-07T13:00:23;25.00;25.00;13.00
72307;PMS5003;60257;42.638;23.376;2024-01-07T13:02:49;26.33;23.33;13.00
72307;PMS5003;60257;42.638;23.376;2024-01-07T13:05:14;19.67;19.00;10.33
72307;PMS5003;60257;42.638;23.376;2024-01-07T13:07:40;24.33;23.67;16.00
72307;PMS5003;60257;42.638;23.376;2024-01-07T13:10:05;21.33;20.33;13.33
72307;PMS5003;60257;42.638;23.376;2024-01-07T13:12:31;17.67;17.00;9.00
72307;PMS5003;60257;42.638;23.376;2024-01-07T13:14:56;19.33;17.00;10.67
72307;PMS5003;60257;42.638;23.376;2024-01-07T13:17:22;22.67;20.67;13.33
72307;PMS5003;60257;42.638;23.376;2024-01-07T13:19:47;23.33;21.67;13.33
72307;PMS5003;60257;42.638;23.376;2024-01-07T13:22:13;24.33;22.67;15.00
72307;PMS5003;60257;42.638;23.376;2024-01-07T13:24:39;16.67;16.67;10.00
72307;PMS5003;60257;42.638;23.376;2024-01-07T13:27:06;24.00;21.67;13.00
72307;PMS5003;60257;42.638;23.376;2024-01-07T13:29:33;19.33;18.33;12.33
72307;PMS5003;60257;42.638;23.376;2024-01-07T13:31:59;22.00;21.67;14.33
72307;PMS5003;60257;42.638;23.376;2024-01-07T13:34:24;19.00;17.33;11.33
72307;PMS5003;60257;42.638;23.376;2024-01-07T13:36:50;20.00;19.67;13.00